East Olympia, Washington
Current Conditions -  °F | °C
As of 6:54 AM on Thursday 30 Oct 2014 (Local Time) from KOLM Reporting Station
Light Rain Light Rain  
Wind Chill: 52°   Ceiling: 11000
Heat Index: 52°   Visibility: 8mi
Dew Point: 51°   Wind: 3mph
Humidity: 97%   Direction: 80°E
Pressure: 29.87"   Gusts: NA
Location:  46.97°N, 122.84°W
Report Text: KOLM 301354Z AUTO 08003KT 8SM -RA OVC110 11/11 A2987 RMK AO2 SLP114 P0001 T01110106
Loading
Personal Weather Stations






























Interactive Weather Map New forecast layout! Learn more

10-Day Weather Forecast

Advertisements
Track Severe Weather on mobile